Time;durP1;ratioP1;P1;durP2;ratioP2;P2;SDS_P1;SDS_P2;PMS_P1;PMS_P2;Temp;Humidity;BMP_temperature;BMP_pressure;BME280_temperature;BME280_humidity;BME280_pressure;Samples;Min_cycle;Max_cycle;Signal;HPM_P1;HPM_P2
2022/07/19 00:00:16;;;;;;;6.00;4.60;;;23.90;99.90;;;;;;6126360;23;20165;-83
2022/07/19 00:02:43;;;;;;;5.80;4.07;;;23.90;99.90;;;;;;6151955;23;20664;-84
2022/07/19 00:05:11;;;;;;;7.37;4.50;;;24.00;99.90;;;;;;6120563;23;20168;-84
2022/07/19 00:07:39;;;;;;;6.53;3.93;;;24.00;28.60;;;;;;6151760;23;20213;-85
2022/07/19 00:10:08;;;;;;;6.63;4.50;;;24.00;1.00;;;;;;6146836;23;20242;-85
2022/07/19 00:12:36;;;;;;;5.80;4.50;;;24.00;1.00;;;;;;6149347;23;20237;-84
2022/07/19 00:15:05;;;;;;;6.50;4.53;;;23.70;1.00;;;;;;6126406;23;20190;-83
2022/07/19 00:17:32;;;;;;;6.27;4.23;;;23.70;1.00;;;;;;6127877;23;20165;-83
2022/07/19 00:19:59;;;;;;;6.33;4.20;;;23.80;1.00;;;;;;6174388;23;20191;-84
2022/07/19 00:22:25;;;;;;;9.70;4.20;;;23.80;1.00;;;;;;6128583;23;20192;-84
2022/07/19 00:24:52;;;;;;;6.97;4.40;;;23.80;1.00;;;;;;6152384;23;20164;-82
2022/07/19 00:27:19;;;;;;;5.67;3.83;;;23.60;1.00;;;;;;6128705;23;20161;-84
2022/07/19 00:29:46;;;;;;;6.93;3.77;;;23.70;1.00;;;;;;6129846;23;20177;-84
2022/07/19 00:32:13;;;;;;;8.87;4.60;;;23.70;1.00;;;;;;6129749;23;20290;-83
2022/07/19 00:34:40;;;;;;;7.72;4.47;;;23.60;1.00;;;;;;6130282;23;20165;-82
2022/07/19 00:37:07;;;;;;;4.87;4.17;;;23.70;1.00;;;;;;6130275;23;20172;-84
2022/07/19 00:39:34;;;;;;;5.15;4.07;;;23.80;1.00;;;;;;6129850;23;20495;-83
2022/07/19 00:42:01;;;;;;;8.00;4.40;;;23.60;1.00;;;;;;6129723;23;20199;-84
2022/07/19 00:44:30;;;;;;;7.83;4.53;;;23.60;1.00;;;;;;6130041;23;20598;-84
2022/07/19 00:46:57;;;;;;;8.17;4.50;;;23.50;1.00;;;;;;6130438;23;20554;-84
2022/07/19 00:49:23;;;;;;;8.50;4.90;;;23.50;1.00;;;;;;6155167;23;20553;-84
2022/07/19 00:51:52;;;;;;;4.93;4.23;;;23.50;1.00;;;;;;6149063;23;20208;-84
2022/07/19 00:54:21;;;;;;;9.88;5.07;;;23.50;1.00;;;;;;6208832;23;20235;-84
2022/07/19 00:56:52;;;;;;;6.53;5.40;;;23.50;1.00;;;;;;6210478;23;20609;-82
2022/07/19 00:59:22;;;;;;;9.80;4.95;;;23.50;1.00;;;;;;6160715;23;20550;-83
2022/07/19 01:01:49;;;;;;;6.70;5.37;;;23.50;1.00;;;;;;6158337;23;20199;-84
2022/07/19 01:04:18;;;;;;;6.67;4.90;;;23.50;1.00;;;;;;6159965;23;20868;-84
2022/07/19 01:06:45;;;;;;;8.47;5.43;;;23.50;1.00;;;;;;6159461;23;20889;-84
2022/07/19 01:09:12;;;;;;;7.23;5.23;;;23.50;1.00;;;;;;6134717;23;20183;-84
2022/07/19 01:11:40;;;;;;;6.17;4.90;;;23.40;1.00;;;;;;6158189;23;20609;-84
2022/07/19 01:14:07;;;;;;;8.20;5.30;;;23.40;1.00;;;;;;6181440;23;20191;-85
2022/07/19 01:16:35;;;;;;;7.30;5.70;;;23.40;1.00;;;;;;6207604;23;20215;-84
2022/07/19 01:19:05;;;;;;;8.97;5.60;;;23.40;1.00;;;;;;6133055;23;20171;-84
2022/07/19 01:21:33;;;;;;;6.80;4.90;;;23.40;1.00;;;;;;6158392;23;20202;-84
2022/07/19 01:24:01;;;;;;;8.63;5.27;;;23.30;1.00;;;;;;6134151;23;20159;-84
2022/07/19 01:26:28;;;;;;;7.90;5.30;;;23.40;1.00;;;;;;6157264;23;20165;-82
2022/07/19 01:28:54;;;;;;;7.50;5.63;;;23.40;1.00;;;;;;6131730;23;20214;-82
2022/07/19 01:31:21;;;;;;;10.47;5.40;;;23.40;1.00;;;;;;6131973;23;20200;-83
2022/07/19 01:33:48;;;;;;;7.97;4.97;;;23.30;1.00;;;;;;6160261;23;20912;-82
2022/07/19 01:36:15;;;;;;;6.53;5.20;;;23.30;1.00;;;;;;6186952;23;20173;-82
2022/07/19 01:38:42;;;;;;;10.67;5.00;;;23.30;1.00;;;;;;6163356;23;20184;-83
2022/07/19 01:41:10;;;;;;;7.77;4.90;;;23.20;1.00;;;;;;6139714;23;20217;-83
2022/07/19 01:43:37;;;;;;;8.53;5.83;;;23.20;1.00;;;;;;6191388;23;20158;-83
2022/07/19 01:46:04;;;;;;;9.50;5.30;;;23.20;1.00;;;;;;6139235;23;20171;-85
2022/07/19 01:48:31;;;;;;;14.10;6.00;;;23.20;1.00;;;;;;6164197;23;20433;-84
2022/07/19 01:50:58;;;;;;;6.17;5.57;;;23.20;1.00;;;;;;6162886;23;20196;-83
2022/07/19 01:53:25;;;;;;;5.47;4.43;;;23.10;39.70;;;;;;6186392;23;20165;-83
2022/07/19 01:55:53;;;;;;;8.03;5.47;;;23.00;99.90;;;;;;6162630;23;20161;-84
2022/07/19 01:58:20;;;;;;;9.47;5.53;;;23.00;99.90;;;;;;6162402;23;20157;-84
2022/07/19 02:00:47;;;;;;;9.17;5.17;;;22.90;99.90;;;;;;6182687;23;20164;-82
2022/07/19 02:03:14;;;;;;;7.13;5.70;;;22.90;99.90;;;;;;6135450;23;20192;-83
2022/07/19 02:05:41;;;;;;;7.47;5.50;;;22.80;1.00;;;;;;6161367;23;20160;-83
2022/07/19 02:08:08;;;;;;;6.97;6.17;;;22.80;1.00;;;;;;6159589;23;20168;-83
2022/07/19 02:10:35;;;;;;;7.23;5.60;;;22.80;1.00;;;;;;6158556;23;20160;-82
2022/07/19 02:13:04;;;;;;;10.10;5.87;;;22.70;1.00;;;;;;6136097;23;20318;-82
2022/07/19 02:15:31;;;;;;;7.03;5.73;;;22.70;1.00;;;;;;6157546;23;20168;-85
2022/07/19 02:17:58;;;;;;;6.17;5.47;;;22.70;1.00;;;;;;6158365;23;20176;-83
2022/07/19 02:20:27;;;;;;;7.47;6.30;;;22.60;1.00;;;;;;6183205;23;20211;-83
2022/07/19 02:22:53;;;;;;;6.43;5.60;;;22.50;1.00;;;;;;6210617;23;20188;-83
2022/07/19 02:25:20;;;;;;;10.93;6.40;;;22.50;1.00;;;;;;6157401;23;20212;-83
2022/07/19 02:27:48;;;;;;;10.60;5.90;;;22.50;1.00;;;;;;6133687;23;20290;-84
2022/07/19 02:30:16;;;;;;;7.17;6.03;;;22.50;1.00;;;;;;6157119;23;20168;-82
2022/07/19 02:32:44;;;;;;;6.07;5.50;;;22.50;1.00;;;;;;6160880;23;20167;-84
2022/07/19 02:35:12;;;;;;;7.73;6.70;;;22.50;1.00;;;;;;6183660;23;20203;-83
2022/07/19 02:37:40;;;;;;;7.70;6.23;;;22.50;1.00;;;;;;6184216;23;20164;-84
2022/07/19 02:40:08;;;;;;;8.17;7.30;;;22.50;1.00;;;;;;6182163;23;20196;-83
2022/07/19 02:42:35;;;;;;;8.50;7.53;;;22.50;1.00;;;;;;6183726;23;20209;-83
2022/07/19 02:45:03;;;;;;;10.47;7.33;;;22.50;1.00;;;;;;6134647;23;20161;-83
2022/07/19 02:47:30;;;;;;;11.70;8.07;;;22.50;1.00;;;;;;6159981;23;20165;-83
2022/07/19 02:49:57;;;;;;;12.03;7.87;;;22.40;1.00;;;;;;6158743;23;20173;-82
2022/07/19 02:52:24;;;;;;;9.07;7.57;;;22.40;1.00;;;;;;6157361;23;20254;-83
2022/07/19 02:54:50;;;;;;;10.37;7.57;;;22.40;1.00;;;;;;6158740;23;20911;-83
2022/07/19 02:57:17;;;;;;;12.60;7.97;;;22.40;1.00;;;;;;6159737;23;20162;-83
2022/07/19 02:59:44;;;;;;;11.10;8.30;;;22.40;1.00;;;;;;6133050;23;20221;-83
2022/07/19 03:02:11;;;;;;;10.50;8.43;;;22.50;1.00;;;;;;6134631;23;20830;-84
2022/07/19 03:04:38;;;;;;;9.13;7.37;;;22.50;1.00;;;;;;6135338;23;20166;-83
2022/07/19 03:07:05;;;;;;;12.67;8.43;;;22.40;1.00;;;;;;6158610;23;20159;-84
2022/07/19 03:09:32;;;;;;;10.87;9.10;;;22.30;1.00;;;;;;6183338;23;20191;-81
2022/07/19 03:11:59;;;;;;;11.87;9.37;;;22.20;1.00;;;;;;6181597;23;20194;-83
2022/07/19 03:14:27;;;;;;;10.03;9.03;;;22.20;1.00;;;;;;6157689;23;20172;-83
2022/07/19 03:16:54;;;;;;;10.40;8.13;;;22.20;1.00;;;;;;6183143;23;20161;-83
2022/07/19 03:19:21;;;;;;;13.43;9.17;;;22.20;1.00;;;;;;6158457;23;20655;-83
2022/07/19 03:21:49;;;;;;;10.33;9.37;;;22.10;1.00;;;;;;6134419;23;20192;-83
2022/07/19 03:24:15;;;;;;;10.10;9.10;;;22.20;99.90;;;;;;6159283;23;20160;-83
2022/07/19 03:26:42;;;;;;;11.63;9.17;;;22.20;1.00;;;;;;6158686;23;20179;-84
2022/07/19 03:29:09;;;;;;;13.37;9.80;;;22.20;1.00;;;;;;6182291;23;20172;-83
2022/07/19 03:31:37;;;;;;;12.23;9.40;;;22.20;99.90;;;;;;6181563;23;20176;-83
2022/07/19 03:34:04;;;;;;;11.27;10.10;;;22.20;99.90;;;;;;6209128;23;20211;-84
2022/07/19 03:36:32;;;;;;;15.30;10.23;;;22.10;99.90;;;;;;6208903;23;20172;-81
2022/07/19 03:38:58;;;;;;;13.40;9.73;;;22.10;99.90;;;;;;6132040;23;20168;-83
2022/07/19 03:41:25;;;;;;;13.13;10.40;;;22.10;99.90;;;;;;6157427;23;20655;-83
2022/07/19 03:43:52;;;;;;;10.93;9.77;;;22.10;1.00;;;;;;6132754;23;20620;-83
2022/07/19 03:46:20;;;;;;;10.00;9.03;;;22.10;1.00;;;;;;6133470;23;20169;-83
2022/07/19 03:48:48;;;;;;;13.97;10.10;;;22.10;1.00;;;;;;6133706;23;20490;-83
2022/07/19 03:51:15;;;;;;;9.83;8.70;;;22.10;13.30;;;;;;6156684;23;20234;-84
2022/07/19 03:53:42;;;;;;;11.47;10.30;;;22.10;1.00;;;;;;6156248;23;20468;-82
2022/07/19 03:56:09;;;;;;;10.33;9.30;;;22.10;1.00;;;;;;6183951;23;20173;-83
2022/07/19 03:58:36;;;;;;;10.50;9.17;;;22.20;1.00;;;;;;6133317;23;20170;-83
2022/07/19 04:01:03;;;;;;;12.77;10.37;;;22.10;1.00;;;;;;6207990;23;20270;-83
2022/07/19 04:03:30;;;;;;;14.67;10.50;;;22.10;1.00;;;;;;6133933;23;20199;-83
2022/07/19 04:05:58;;;;;;;12.50;9.83;;;22.10;1.00;;;;;;6209386;23;20168;-83
2022/07/19 04:08:24;;;;;;;12.00;10.00;;;22.10;1.00;;;;;;6134053;23;20171;-83
2022/07/19 04:10:51;;;;;;;11.83;10.00;;;22.10;1.00;;;;;;6157344;23;20182;-82
2022/07/19 04:13:18;;;;;;;14.03;10.00;;;22.10;1.00;;;;;;6133784;23;20337;-83
2022/07/19 04:15:45;;;;;;;11.00;9.93;;;22.00;1.00;;;;;;6132210;23;20175;-83
2022/07/19 04:18:13;;;;;;;10.60;9.50;;;22.00;1.00;;;;;;6182399;23;20166;-83
2022/07/19 04:20:41;;;;;;;10.87;9.77;;;22.00;99.90;;;;;;6180662;23;20165;-83
2022/07/19 04:23:08;;;;;;;11.17;10.03;;;22.00;99.90;;;;;;6209881;23;20192;-83
2022/07/19 04:25:35;;;;;;;11.50;10.30;;;22.00;1.00;;;;;;6206930;23;20168;-83
2022/07/19 04:28:02;;;;;;;11.30;9.87;;;22.00;1.00;;;;;;6182503;23;20165;-82
2022/07/19 04:30:29;;;;;;;13.67;10.97;;;22.00;1.00;;;;;;6180538;23;20162;-83
2022/07/19 04:32:56;;;;;;;12.90;10.13;;;22.00;1.00;;;;;;6157772;23;20171;-83
2022/07/19 04:35:23;;;;;;;11.20;10.07;;;22.00;1.00;;;;;;6132716;23;20172;-84
2022/07/19 04:37:50;;;;;;;13.67;9.87;;;22.00;1.00;;;;;;6134863;23;20168;-84
2022/07/19 04:40:17;;;;;;;12.73;11.10;;;22.10;1.00;;;;;;6155663;23;20201;-83
2022/07/19 04:42:44;;;;;;;13.50;10.53;;;22.10;1.00;;;;;;6134219;23;20193;-84
2022/07/19 04:45:11;;;;;;;12.30;11.00;;;22.10;1.00;;;;;;6182487;23;20501;-82
2022/07/19 04:47:38;;;;;;;13.27;10.60;;;22.10;1.00;;;;;;6157469;23;20201;-83
2022/07/19 04:50:05;;;;;;;11.57;10.37;;;22.20;1.00;;;;;;6157347;23;20168;-83
2022/07/19 04:52:32;;;;;;;11.70;10.10;;;22.20;1.00;;;;;;6156717;23;20208;-83
2022/07/19 04:54:59;;;;;;;13.50;12.20;;;22.20;1.00;;;;;;6182183;23;20613;-82
2022/07/19 04:57:26;;;;;;;80.27;19.87;;;22.20;1.00;;;;;;6133202;23;20167;-83
2022/07/19 04:59:53;;;;;;;49.33;16.07;;;22.20;1.00;;;;;;6156999;23;20972;-83
2022/07/19 05:02:20;;;;;;;36.77;13.83;;;22.20;1.00;;;;;;6158444;23;20191;-84
2022/07/19 05:04:47;;;;;;;16.70;11.97;;;22.30;1.00;;;;;;6157644;23;20161;-83
2022/07/19 05:07:14;;;;;;;20.33;13.37;;;22.40;1.00;;;;;;6182269;23;20542;-82
2022/07/19 05:09:41;;;;;;;15.00;12.97;;;22.50;1.00;;;;;;6132061;23;20160;-83
2022/07/19 05:12:09;;;;;;;16.13;12.73;;;22.50;1.00;;;;;;6133073;23;20156;-83
2022/07/19 05:14:36;;;;;;;18.73;13.67;;;22.50;1.00;;;;;;6156699;23;20161;-82
2022/07/19 05:17:03;;;;;;;20.07;13.53;;;22.60;1.00;;;;;;6208406;23;20477;-83
2022/07/19 05:19:29;;;;;;;14.83;11.83;;;22.60;1.00;;;;;;6158428;23;20157;-82
2022/07/19 05:21:56;;;;;;;16.30;13.67;;;22.60;1.00;;;;;;6182947;23;20218;-83
2022/07/19 05:24:23;;;;;;;14.93;13.43;;;22.70;1.00;;;;;;6157130;23;20216;-83
2022/07/19 05:26:50;;;;;;;16.17;14.53;;;22.60;1.00;;;;;;6134784;23;20210;-83
2022/07/19 05:29:17;;;;;;;17.50;13.53;;;22.60;1.00;;;;;;6187046;23;20168;-83
2022/07/19 05:31:44;;;;;;;20.77;14.07;;;22.80;1.00;;;;;;6166118;23;20171;-83
2022/07/19 05:34:11;;;;;;;18.37;13.23;;;22.90;1.00;;;;;;6172690;23;20172;-83
2022/07/19 05:36:38;;;;;;;16.57;14.80;;;23.00;1.00;;;;;;6195001;23;20175;-83
2022/07/19 05:39:05;;;;;;;19.53;14.37;;;23.10;1.00;;;;;;6171829;23;20165;-82
2022/07/19 05:41:32;;;;;;;17.77;14.30;;;23.20;1.00;;;;;;6171189;23;20191;-80
2022/07/19 05:43:59;;;;;;;16.10;14.40;;;23.30;1.00;;;;;;6163816;23;20184;-82
2022/07/19 05:46:26;;;;;;;17.33;15.10;;;23.30;1.00;;;;;;6183938;23;20188;-85
2022/07/19 05:48:53;;;;;;;21.47;16.17;;;23.40;1.00;;;;;;6159876;23;20175;-81
2022/07/19 05:51:20;;;;;;;18.97;16.17;;;23.50;1.00;;;;;;6131195;23;20653;-85
2022/07/19 05:53:47;;;;;;;23.20;17.07;;;23.50;99.90;;;;;;6157147;23;20169;-85
2022/07/19 05:56:17;;;;;;;18.97;17.07;;;23.40;99.90;;;;;;6157835;23;20161;-87
2022/07/19 05:58:44;;;;;;;18.83;16.43;;;23.40;99.90;;;;;;6146823;23;20193;-82
2022/07/19 06:01:17;;;;;;;20.40;16.60;;;23.50;99.90;;;;;;6148132;23;20196;-83
2022/07/19 06:03:50;;;;;;;19.50;16.90;;;23.60;99.90;;;;;;6150453;23;20188;-83
2022/07/19 06:06:27;;;;;;;21.43;17.33;;;23.60;99.90;;;;;;6153182;23;20253;-84
2022/07/19 06:08:54;;;;;;;18.70;16.70;;;23.70;99.90;;;;;;6178218;23;20228;-83
2022/07/19 06:11:20;;;;;;;19.93;16.90;;;23.70;99.90;;;;;;6150568;23;20219;-85
2022/07/19 06:13:48;;;;;;;19.33;17.23;;;23.70;99.90;;;;;;6148848;23;20171;-85
2022/07/19 06:16:15;;;;;;;20.27;16.63;;;23.70;99.90;;;;;;6150914;23;20242;-85
2022/07/19 06:18:43;;;;;;;20.57;16.77;;;23.80;99.90;;;;;;6174269;23;20283;-85
2022/07/19 06:21:12;;;;;;;20.73;17.50;;;24.00;99.90;;;;;;6152671;23;20261;-85
2022/07/19 06:23:40;;;;;;;21.90;17.87;;;24.00;99.90;;;;;;6151153;23;20204;-85
2022/07/19 06:26:10;;;;;;;18.90;17.13;;;23.90;99.90;;;;;;6154155;23;20158;-87
2022/07/19 06:28:37;;;;;;;24.73;16.60;;;23.90;99.90;;;;;;6153246;23;20272;-86
2022/07/19 06:31:16;;;;;;;19.23;17.17;;;23.90;99.90;;;;;;6154937;23;20170;-86
2022/07/19 06:33:46;;;;;;;19.13;17.07;;;24.00;99.90;;;;;;6152019;23;20169;-88
2022/07/19 06:36:13;;;;;;;22.10;18.07;;;24.10;99.90;;;;;;6153275;23;20165;-87
2022/07/19 06:38:41;;;;;;;19.80;17.13;;;24.00;99.90;;;;;;6152989;23;20163;-86
2022/07/19 06:41:08;;;;;;;21.00;18.00;;;24.10;99.90;;;;;;6154678;23;20204;-87
2022/07/19 06:43:35;;;;;;;17.20;15.53;;;24.30;99.90;;;;;;6153204;23;20192;-87
2022/07/19 06:46:02;;;;;;;18.77;16.87;;;24.40;99.90;;;;;;6155876;23;20176;-87
2022/07/19 06:48:29;;;;;;;18.43;16.03;;;24.40;99.90;;;;;;6156845;23;20450;-87
2022/07/19 06:50:56;;;;;;;19.97;14.70;;;24.50;99.90;;;;;;6161130;23;20264;-86
2022/07/19 06:53:22;;;;;;;17.53;14.97;;;24.70;99.90;;;;;;6137014;23;20180;-87
2022/07/19 06:55:50;;;;;;;16.23;14.53;;;24.80;99.90;;;;;;6161536;23;20647;-86
2022/07/19 06:58:17;;;;;;;15.63;13.50;;;25.00;99.90;;;;;;6159738;23;20169;-87
2022/07/19 07:00:45;;;;;;;15.40;13.83;;;25.20;99.90;;;;;;6160924;23;20166;-87
2022/07/19 07:03:12;;;;;;;15.53;13.03;;;25.40;99.90;;;;;;6185566;23;20190;-86
2022/07/19 07:05:39;;;;;;;15.83;12.97;;;25.50;99.90;;;;;;6134935;23;20225;-86
2022/07/19 07:08:06;;;;;;;14.03;11.80;;;25.70;99.90;;;;;;6135479;23;20176;-87
2022/07/19 07:10:33;;;;;;;16.83;11.70;;;25.90;99.90;;;;;;6158325;23;20170;-85
2022/07/19 07:13:00;;;;;;;12.63;9.80;;;26.10;69.10;;;;;;6157842;23;20514;-87
2022/07/19 07:15:27;;;;;;;14.13;10.13;;;26.10;1.00;;;;;;6210662;23;20171;-87
2022/07/19 07:17:54;;;;;;;15.47;10.93;;;26.30;1.00;;;;;;6160007;23;20174;-87
2022/07/19 07:20:20;;;;;;;14.40;10.27;;;26.60;1.00;;;;;;6184320;23;20172;-86
2022/07/19 07:22:47;;;;;;;15.50;8.47;;;26.60;1.00;;;;;;6160852;23;20490;-87
2022/07/19 07:25:14;;;;;;;12.57;8.10;;;26.80;1.00;;;;;;6136365;23;20164;-86
2022/07/19 07:27:42;;;;;;;13.70;9.43;;;27.00;1.00;;;;;;6135499;23;20187;-88
2022/07/19 07:30:10;;;;;;;12.13;8.33;;;27.10;1.00;;;;;;6140363;23;20181;-86
2022/07/19 07:32:37;;;;;;;37.90;12.00;;;27.20;1.00;;;;;;6161653;23;20230;-87
2022/07/19 07:35:04;;;;;;;21.07;10.00;;;27.20;1.00;;;;;;6134787;23;20232;-87
2022/07/19 07:37:31;;;;;;;12.67;8.27;;;27.60;1.00;;;;;;6209949;23;20202;-87
2022/07/19 07:39:58;;;;;;;22.23;8.35;;;27.60;1.00;;;;;;6135932;23;20188;-87
2022/07/19 07:42:25;;;;;;;12.13;7.93;;;27.70;1.00;;;;;;6159986;23;20237;-87
2022/07/19 07:44:52;;;;;;;12.30;8.27;;;27.90;1.00;;;;;;6161152;23;20557;-87
2022/07/19 07:47:19;;;;;;;12.02;7.85;;;28.10;1.00;;;;;;6186313;23;20187;-87
2022/07/19 07:49:46;;;;;;;14.30;8.63;;;28.20;1.00;;;;;;6160887;23;20239;-87
2022/07/19 07:52:13;;;;;;;14.75;9.18;;;28.40;1.00;;;;;;6185180;23;20956;-87
2022/07/19 07:54:40;;;;;;;23.95;10.60;;;28.40;1.00;;;;;;6158146;23;20168;-87
2022/07/19 07:57:27;;;;;;;24.17;9.82;;;28.40;1.00;;;;;;6143382;23;20291;-86
2022/07/19 07:59:54;;;;;;;10.98;8.10;;;28.80;1.00;;;;;;6135724;23;20611;-87
2022/07/19 08:02:21;;;;;;;10.32;8.30;;;29.00;1.00;;;;;;6135367;23;20436;-86
2022/07/19 08:04:48;;;;;;;9.70;8.48;;;28.80;1.00;;;;;;6158245;23;20726;-86
2022/07/19 08:07:15;;;;;;;10.32;6.68;;;28.80;1.00;;;;;;6131262;23;20849;-86
2022/07/19 08:09:41;;;;;;;9.57;6.68;;;29.20;1.00;;;;;;6129011;23;20238;-84
2022/07/19 08:12:08;;;;;;;11.57;5.57;;;29.40;1.00;;;;;;6177253;23;20452;-81
2022/07/19 08:14:35;;;;;;;9.63;5.68;;;30.20;1.00;;;;;;6180417;23;20176;-82
2022/07/19 08:17:02;;;;;;;14.57;7.20;;;30.90;1.00;;;;;;6130693;23;20199;-82
2022/07/19 08:19:29;;;;;;;12.18;6.38;;;31.30;1.00;;;;;;6154137;23;20232;-82
2022/07/19 08:21:56;;;;;;;6.07;5.10;;;31.10;1.00;;;;;;6156602;23;21123;-82
2022/07/19 08:24:23;;;;;;;9.13;4.90;;;31.50;1.00;;;;;;6155877;23;20199;-82
2022/07/19 08:26:50;;;;;;;10.38;5.13;;;31.80;1.00;;;;;;6128723;23;20164;-83
2022/07/19 08:29:17;;;;;;;5.10;3.38;;;31.90;1.00;;;;;;6130620;23;20157;-83
2022/07/19 08:31:44;;;;;;;9.40;5.10;;;33.60;1.00;;;;;;6129189;23;20608;-83
2022/07/19 08:34:11;;;;;;;10.95;4.45;;;33.50;1.00;;;;;;6132103;23;20240;-82
2022/07/19 08:36:38;;;;;;;8.52;4.18;;;33.40;1.00;;;;;;6129298;23;20593;-82
2022/07/19 08:39:05;;;;;;;8.48;5.30;;;33.60;1.00;;;;;;6154595;23;20176;-82
2022/07/19 08:41:33;;;;;;;9.00;3.63;;;33.00;1.00;;;;;;6176630;23;20223;-83
2022/07/19 08:44:03;;;;;;;5.97;3.60;;;34.00;1.00;;;;;;6180453;23;20188;-83
2022/07/19 08:46:30;;;;;;;12.25;3.47;;;34.40;1.00;;;;;;6158286;23;20455;-82
2022/07/19 08:50:59;;;;;;;5.90;3.88;;;34.00;1.00;;;;;;5052021;27;21135;-54
2022/07/19 08:53:30;;;;;;;8.13;3.67;;;34.10;1.00;;;;;;5064082;22;20633;-82
2022/07/19 08:59:06;;;;;;;6.50;3.58;;;35.10;1.00;;;;;;5076777;28;20203;-57
2022/07/19 09:01:34;;;;;;;6.03;3.60;;;35.10;1.00;;;;;;5067730;28;20207;-56
2022/07/19 09:04:07;;;;;;;11.55;3.47;;;35.20;1.00;;;;;;5073910;28;20688;-56
2022/07/19 09:06:45;;;;;;;8.82;3.33;;;35.60;1.00;;;;;;5077145;28;20252;-56
2022/07/19 09:09:16;;;;;;;5.18;4.00;;;34.70;1.00;;;;;;5077728;28;20303;-57
2022/07/19 09:11:50;;;;;;;6.68;3.50;;;34.70;1.00;;;;;;5071264;28;20202;-56
2022/07/19 09:14:21;;;;;;;6.72;3.15;;;34.90;1.00;;;;;;5075646;28;20253;-57
2022/07/19 09:16:51;;;;;;;4.95;3.20;;;34.50;1.00;;;;;;5078658;28;20215;-58
2022/07/19 09:19:19;;;;;;;10.68;3.30;;;34.40;1.00;;;;;;5080708;28;20245;-57
2022/07/19 09:21:54;;;;;;;9.13;3.70;;;34.10;1.00;;;;;;5078608;28;20717;-57
2022/07/19 09:24:23;;;;;;;8.57;2.90;;;34.40;1.00;;;;;;5075922;28;20648;-57
2022/07/19 09:27:02;;;;;;;6.15;3.53;;;34.90;1.00;;;;;;5066635;28;20203;-56
2022/07/19 09:29:30;;;;;;;11.35;3.85;;;35.10;1.00;;;;;;5070157;28;20301;-59
2022/07/19 09:31:58;;;;;;;10.55;3.60;;;34.90;1.00;;;;;;5074072;28;20293;-57
2022/07/19 09:34:48;;;;;;;8.95;3.33;;;34.90;1.00;;;;;;5088499;28;20594;-56
2022/07/19 09:37:21;;;;;;;5.22;3.28;;;34.40;1.00;;;;;;5076546;28;20207;-55
2022/07/19 09:39:51;;;;;;;5.32;2.92;;;34.30;1.00;;;;;;5068770;28;20334;-58
2022/07/19 09:42:21;;;;;;;6.47;3.00;;;34.40;1.00;;;;;;5065903;28;20209;-55
2022/07/19 09:44:58;;;;;;;7.18;3.05;;;34.90;1.00;;;;;;5073186;28;20203;-58
2022/07/19 09:47:34;;;;;;;8.93;3.60;;;35.20;1.00;;;;;;5082939;28;20681;-57
2022/07/19 09:50:04;;;;;;;9.60;3.35;;;35.00;1.00;;;;;;5071857;28;20724;-59
2022/07/19 09:52:33;;;;;;;8.30;3.17;;;35.00;1.00;;;;;;5071904;28;20205;-56
2022/07/19 09:55:08;;;;;;;9.45;3.50;;;35.10;1.00;;;;;;5095769;27;20612;-56
2022/07/19 09:57:44;;;;;;;6.43;3.60;;;34.50;99.90;;;;;;5111830;27;20206;-65
2022/07/19 10:00:13;;;;;;;7.80;3.20;;;34.20;1.00;;;;;;5106568;27;20209;-58
2022/07/19 10:02:43;;;;;;;4.40;3.10;;;33.90;1.00;;;;;;5101518;27;20491;-57
2022/07/19 10:05:11;;;;;;;5.15;2.92;;;33.80;99.90;;;;;;5109777;27;20216;-57
2022/07/19 10:07:40;;;;;;;6.13;3.25;;;34.40;1.00;;;;;;5096014;27;20237;-58
2022/07/19 10:10:13;;;;;;;6.32;3.00;;;33.80;1.00;;;;;;5093318;27;20339;-58
2022/07/19 10:12:41;;;;;;;7.03;2.90;;;34.00;99.90;;;;;;5089944;27;20202;-58
2022/07/19 10:15:11;;;;;;;3.78;2.88;;;34.20;99.90;;;;;;5095198;27;20306;-58
2022/07/19 10:18:11;;;;;;;5.40;2.85;;;34.00;99.90;;;;;;5098437;27;20605;-62
2022/07/19 10:20:39;;;;;;;8.82;2.97;;;34.20;99.90;;;;;;5094854;27;20230;-63
2022/07/19 10:23:07;;;;;;;9.05;3.47;;;34.40;99.90;;;;;;5074652;27;20217;-64
2022/07/19 10:25:47;;;;;;;9.43;2.67;;;34.30;99.90;;;;;;5070356;27;20398;-63
2022/07/19 10:28:37;;;;;;;7.25;2.90;;;34.00;99.90;;;;;;5080766;27;20220;-63
2022/07/19 10:31:26;;;;;;;6.55;2.75;;;34.30;99.90;;;;;;5095752;28;20202;-63
2022/07/19 10:34:11;;;;;;;9.73;3.83;;;34.40;99.90;;;;;;5073139;28;20206;-66
2022/07/19 10:36:47;;;;;;;7.88;3.53;;;34.20;99.90;;;;;;5097270;27;20591;-64
2022/07/19 10:39:36;;;;;;;4.57;3.20;;;33.90;99.90;;;;;;5066899;27;20378;-58
2022/07/19 10:42:11;;;;;;;8.60;3.80;;;34.20;1.00;;;;;;5080653;27;20202;-57
2022/07/19 10:44:56;;;;;;;4.90;3.53;;;34.00;99.90;;;;;;5097663;27;20199;-57
2022/07/19 10:47:34;;;;;;;7.15;3.22;;;34.00;99.90;;;;;;5099566;27;20203;-57
2022/07/19 10:50:10;;;;;;;9.57;3.17;;;34.00;99.90;;;;;;5102275;27;20212;-56
2022/07/19 10:52:38;;;;;;;5.22;3.10;;;34.10;99.90;;;;;;5102780;28;20201;-56
2022/07/19 10:55:25;;;;;;;6.90;3.10;;;34.10;99.90;;;;;;5091640;27;20807;-58
2022/07/19 10:57:53;;;;;;;8.38;3.35;;;34.60;99.90;;;;;;5074672;28;20199;-58
2022/07/19 11:00:28;;;;;;;6.55;3.53;;;34.10;99.90;;;;;;5091876;27;20225;-57
2022/07/19 11:03:23;;;;;;;8.00;3.72;;;34.40;99.90;;;;;;5094762;27;20190;-56
2022/07/19 11:05:58;;;;;;;8.55;3.58;;;34.40;99.90;;;;;;5092759;27;20218;-57
2022/07/19 11:08:35;;;;;;;4.90;3.35;;;35.00;99.90;;;;;;5095277;27;20667;-57
2022/07/19 11:11:17;;;;;;;5.47;3.40;;;35.40;99.90;;;;;;5094664;27;20224;-56
2022/07/19 11:13:46;;;;;;;5.55;3.50;;;35.30;99.90;;;;;;5094350;28;20383;-56
2022/07/19 11:16:13;;;;;;;8.20;3.40;;;35.20;99.90;;;;;;5092905;27;20231;-56
2022/07/19 11:18:43;;;;;;;5.30;3.28;;;35.20;99.90;;;;;;5091537;27;20372;-56
2022/07/19 11:21:14;;;;;;;3.28;2.95;;;35.40;99.90;;;;;;5091632;27;20784;-56
2022/07/19 11:23:42;;;;;;;5.97;3.35;;;36.20;99.90;;;;;;5090005;27;21120;-59
2022/07/19 11:26:09;;;;;;;5.47;3.53;;;37.40;99.90;;;;;;5098011;27;20615;-58
2022/07/19 11:28:37;;;;;;;6.25;3.47;;;37.70;99.90;;;;;;5095841;27;20251;-58
2022/07/19 11:31:22;;;;;;;5.25;3.35;;;37.60;99.90;;;;;;5098776;27;20618;-57
2022/07/19 11:33:56;;;;;;;3.90;3.28;;;36.80;99.90;;;;;;5098975;27;20255;-57
2022/07/19 11:36:24;;;;;;;2.90;2.70;;;37.40;99.90;;;;;;5092103;27;20206;-57
2022/07/19 11:38:58;;;;;;;6.03;2.95;;;38.20;99.90;;;;;;5094546;27;20230;-57
2022/07/19 11:41:27;;;;;;;9.75;3.28;;;37.20;99.90;;;;;;5077355;27;20194;-56
2022/07/19 11:44:02;;;;;;;3.47;2.83;;;37.00;99.90;;;;;;5092726;27;20295;-56
2022/07/19 11:46:37;;;;;;;3.72;2.97;;;37.00;99.90;;;;;;5096903;27;20229;-56
2022/07/19 11:49:06;;;;;;;3.05;2.72;;;36.80;99.90;;;;;;5098429;27;20201;-56
2022/07/19 11:51:33;;;;;;;4.63;3.03;;;37.60;99.90;;;;;;5094462;28;20237;-56
2022/07/19 11:54:02;;;;;;;3.47;2.60;;;37.80;99.90;;;;;;5093725;27;20229;-56
2022/07/19 11:56:32;;;;;;;7.10;3.08;;;37.60;99.90;;;;;;5095781;27;20747;-56
2022/07/19 11:59:01;;;;;;;3.60;2.80;;;37.10;99.90;;;;;;5095118;27;20734;-56
2022/07/19 12:01:34;;;;;;;3.92;2.95;;;36.80;99.90;;;;;;5098739;27;20289;-58
2022/07/19 12:04:07;;;;;;;7.15;3.22;;;37.10;99.90;;;;;;5099135;27;20256;-57
2022/07/19 12:06:40;;;;;;;3.45;2.70;;;38.20;99.90;;;;;;5097423;27;20301;-56
2022/07/19 12:09:10;;;;;;;5.60;3.20;;;37.90;99.90;;;;;;5094012;27;20279;-56
2022/07/19 12:11:42;;;;;;;5.07;2.75;;;38.00;99.90;;;;;;5096984;28;20905;-57
2022/07/19 12:14:20;;;;;;;3.17;2.85;;;37.80;99.90;;;;;;5091751;27;20337;-57
2022/07/19 12:17:12;;;;;;;6.43;2.80;;;38.10;99.90;;;;;;5097322;27;20217;-57
2022/07/19 12:19:43;;;;;;;7.03;3.10;;;38.50;99.90;;;;;;5096135;27;20215;-56
2022/07/19 12:22:29;;;;;;;4.90;2.50;;;38.60;99.90;;;;;;5079336;28;20220;-57
2022/07/19 12:24:57;;;;;;;6.75;2.85;;;38.70;99.90;;;;;;5099883;27;21504;-57
2022/07/19 12:27:29;;;;;;;3.35;2.63;;;38.30;99.90;;;;;;5095422;28;20225;-57
2022/07/19 12:30:01;;;;;;;7.38;2.75;;;38.20;99.90;;;;;;5097689;27;20217;-57
2022/07/19 12:32:37;;;;;;;2.95;2.15;;;38.30;99.90;;;;;;5081286;28;20289;-56
2022/07/19 12:35:08;;;;;;;5.88;3.15;;;37.90;99.90;;;;;;5095023;27;20633;-57
2022/07/19 12:37:37;;;;;;;7.22;2.58;;;38.40;99.90;;;;;;5100107;28;20201;-57
2022/07/19 12:40:22;;;;;;;4.15;2.70;;;38.70;99.90;;;;;;5097291;27;20214;-56
2022/07/19 12:42:59;;;;;;;7.53;2.58;;;37.80;99.90;;;;;;5095775;28;20229;-56
2022/07/19 12:45:32;;;;;;;6.45;2.60;;;37.80;99.90;;;;;;5097267;28;20194;-56
2022/07/19 12:48:01;;;;;;;5.95;2.95;;;38.30;99.90;;;;;;5097083;28;20205;-57
2022/07/19 12:50:28;;;;;;;5.32;2.90;;;38.40;99.90;;;;;;5075696;28;20300;-58
2022/07/19 12:52:57;;;;;;;4.68;2.72;;;38.10;99.90;;;;;;5097765;28;20214;-58
2022/07/19 12:55:27;;;;;;;5.07;2.75;;;38.10;99.90;;;;;;5083581;28;20379;-57
2022/07/19 12:57:55;;;;;;;9.32;3.15;;;38.10;99.90;;;;;;5082931;28;20225;-57
2022/07/19 13:00:23;;;;;;;5.22;2.95;;;38.50;99.90;;;;;;5060280;28;20624;-57